createdAt,value
2022-11-03T00:02:46.358Z,4.73
2022-11-03T00:05:51.480Z,5.23
2022-11-03T00:08:42.410Z,5.70
2022-11-03T00:11:28.648Z,5.27
2022-11-03T00:14:15.115Z,5.47
2022-11-03T00:17:01.206Z,4.60
2022-11-03T00:19:47.463Z,4.83
2022-11-03T00:22:33.928Z,4.40
2022-11-03T00:25:20.419Z,4.67
2022-11-03T00:28:06.713Z,5.20
2022-11-03T00:30:53.004Z,5.23
2022-11-03T00:33:40.376Z,4.93
2022-11-03T00:36:32.103Z,5.40
2022-11-03T00:39:18.705Z,5.83
2022-11-03T00:42:05.047Z,5.40
2022-11-03T00:44:51.247Z,4.93
2022-11-03T00:47:57.714Z,6.10
2022-11-03T00:50:44.401Z,5.63
2022-11-03T00:53:32.296Z,4.70
2022-11-03T00:56:22.097Z,4.60
2022-11-03T00:59:09.983Z,5.53
2022-11-03T01:01:56.806Z,5.17
2022-11-03T01:05:01.717Z,4.70
2022-11-03T01:07:48.027Z,4.03
2022-11-03T01:10:36.617Z,5.33
2022-11-03T01:13:23.067Z,3.97
2022-11-03T01:16:09.548Z,4.63
2022-11-03T01:18:55.808Z,3.80
2022-11-03T01:21:43.657Z,3.93
2022-11-03T01:24:29.934Z,3.73
2022-11-03T01:27:18.975Z,4.40
2022-11-03T01:30:05.598Z,3.83
2022-11-03T01:32:52.492Z,5.10
2022-11-03T01:35:38.889Z,4.93
2022-11-03T01:38:25.196Z,4.53
2022-11-03T01:41:15.808Z,4.60
2022-11-03T01:44:35.075Z,4.67
2022-11-03T01:47:28.161Z,4.87
2022-11-03T01:50:18.751Z,5.20
2022-11-03T01:53:05.351Z,5.57
2022-11-03T01:55:52.025Z,4.83
2022-11-03T01:58:41.469Z,6.03
2022-11-03T02:01:28.531Z,6.30
2022-11-03T02:04:23.966Z,5.03
2022-11-03T02:07:35.512Z,5.20
2022-11-03T02:10:23.693Z,4.73
2022-11-03T02:13:18.459Z,4.80
2022-11-03T02:16:05.297Z,5.07
2022-11-03T02:18:53.287Z,4.60
2022-11-03T02:21:56.206Z,5.27
2022-11-03T02:25:02.100Z,4.67
2022-11-03T02:27:48.924Z,3.87
2022-11-03T02:31:01.249Z,4.90
2022-11-03T02:34:25.542Z,5.47
2022-11-03T02:37:22.020Z,4.43
2022-11-03T02:40:13.709Z,4.60
2022-11-03T02:43:01.943Z,4.33
2022-11-03T02:45:50.588Z,5.10
2022-11-03T02:48:37.487Z,4.73
2022-11-03T02:51:24.977Z,5.30
2022-11-03T02:54:21.753Z,4.67
2022-11-03T02:57:18.643Z,5.40
2022-11-03T03:00:09.351Z,5.30
2022-11-03T03:03:09.352Z,5.17
2022-11-03T03:06:05.107Z,4.53
2022-11-03T03:08:57.283Z,4.90
2022-11-03T03:11:47.494Z,5.20
2022-11-03T03:14:39.295Z,4.43
2022-11-03T03:17:44.390Z,4.40
2022-11-03T03:20:50.847Z,4.47
2022-11-03T03:23:47.996Z,6.60
2022-11-03T03:26:43.148Z,4.10
2022-11-03T03:29:37.787Z,4.53
2022-11-03T03:32:27.944Z,4.43
2022-11-03T03:35:19.005Z,4.37
2022-11-03T03:38:09.867Z,3.90
2022-11-03T03:40:59.756Z,5.77
2022-11-03T03:43:46.474Z,5.10
2022-11-03T03:46:37.928Z,5.07
2022-11-03T03:49:24.683Z,4.10
2022-11-03T03:52:11.630Z,5.17
2022-11-03T03:54:57.789Z,3.90
2022-11-03T03:57:44.855Z,4.70
2022-11-03T04:00:31.118Z,4.23
2022-11-03T04:03:20.296Z,4.20
2022-11-03T04:06:06.780Z,4.67
2022-11-03T04:08:52.984Z,4.83
2022-11-03T04:11:58.218Z,4.57
2022-11-03T04:15:03.403Z,4.60
2022-11-03T04:18:09.234Z,4.40
2022-11-03T04:21:14.495Z,4.47
2022-11-03T04:24:00.774Z,4.20
2022-11-03T04:26:47.179Z,4.33
2022-11-03T04:29:33.728Z,5.80
2022-11-03T04:32:20.203Z,6.33
2022-11-03T04:35:27.772Z,5.97
2022-11-03T04:38:13.810Z,5.07
2022-11-03T04:41:00.206Z,4.13
2022-11-03T04:43:47.244Z,4.97
2022-11-03T04:46:33.404Z,5.00
2022-11-03T04:49:23.142Z,6.10
2022-11-03T04:52:19.820Z,5.43
2022-11-03T04:55:10.313Z,5.93
2022-11-03T04:58:07.043Z,4.10
2022-11-03T05:00:56.606Z,5.47
2022-11-03T05:03:44.828Z,5.50
2022-11-03T05:06:31.473Z,5.70
2022-11-03T05:09:23.038Z,4.80
2022-11-03T05:12:10.104Z,6.00
2022-11-03T05:14:58.914Z,6.50
2022-11-03T05:17:45.335Z,6.47
2022-11-03T05:20:37.467Z,5.13
2022-11-03T05:23:23.959Z,5.40
2022-11-03T05:26:25.604Z,5.17
2022-11-03T05:29:29.247Z,4.63
2022-11-03T05:32:24.481Z,5.10
2022-11-03T05:35:22.962Z,5.33
2022-11-03T05:38:14.737Z,5.13
2022-11-03T05:41:01.654Z,5.23
2022-11-03T05:43:56.394Z,4.20
2022-11-03T05:46:42.736Z,4.70
2022-11-03T05:49:30.132Z,5.17
2022-11-03T05:52:22.387Z,5.27
2022-11-03T05:55:27.231Z,5.10
2022-11-03T05:58:29.014Z,4.70
2022-11-03T06:01:34.328Z,4.80
2022-11-03T06:04:38.659Z,5.47
2022-11-03T06:07:29.853Z,6.07
2022-11-03T06:10:35.915Z,4.73
2022-11-03T06:13:37.353Z,5.03
2022-11-03T06:16:40.131Z,5.57
2022-11-03T06:19:36.844Z,5.10
2022-11-03T06:22:35.334Z,7.43
2022-11-03T06:25:27.947Z,5.07
2022-11-03T06:28:30.264Z,5.20
2022-11-03T06:31:23.154Z,6.10
2022-11-03T06:34:22.663Z,6.67
2022-11-03T06:37:16.587Z,5.73
2022-11-03T06:40:15.152Z,6.13
2022-11-03T06:43:14.625Z,6.03
2022-11-03T06:46:05.948Z,6.77
2022-11-03T06:48:54.903Z,7.77
2022-11-03T06:51:41.407Z,5.70
2022-11-03T06:54:27.984Z,7.33
2022-11-03T06:57:17.330Z,5.93
2022-11-03T07:00:33.629Z,5.87
2022-11-03T07:03:27.159Z,6.67
2022-11-03T07:06:24.602Z,6.40
2022-11-03T07:09:16.763Z,5.70
2022-11-03T07:12:03.399Z,5.00
2022-11-03T07:14:49.757Z,5.73
2022-11-03T07:17:35.936Z,5.93
2022-11-03T07:20:22.210Z,7.10
2022-11-03T07:23:15.386Z,6.13
2022-11-03T07:26:02.043Z,5.60
2022-11-03T07:28:48.554Z,5.67
2022-11-03T07:31:34.704Z,5.97
2022-11-03T07:34:25.386Z,5.60
2022-11-03T07:37:20.166Z,5.80
2022-11-03T07:40:13.258Z,5.60
2022-11-03T07:43:02.091Z,6.57
2022-11-03T07:45:49.547Z,5.47
2022-11-03T07:48:46.468Z,5.13
2022-11-03T07:51:34.968Z,4.97
2022-11-03T07:54:26.909Z,6.17
2022-11-03T07:57:16.476Z,5.17
2022-11-03T08:00:10.772Z,4.93
2022-11-03T08:03:01.688Z,4.90
2022-11-03T08:05:48.084Z,4.67
2022-11-03T08:08:34.643Z,5.67
2022-11-03T08:11:24.686Z,6.07
2022-11-03T08:14:14.602Z,5.50
2022-11-03T08:17:01.045Z,5.60
2022-11-03T08:19:47.176Z,4.27
2022-11-03T08:22:33.575Z,5.33
2022-11-03T08:25:20.067Z,4.40
2022-11-03T08:28:06.303Z,4.40
2022-11-03T08:30:52.749Z,4.50
2022-11-03T08:33:38.869Z,4.70
2022-11-03T08:36:25.518Z,4.93
2022-11-03T08:39:11.998Z,4.93
2022-11-03T08:41:58.225Z,4.67
2022-11-03T08:44:44.348Z,4.37
2022-11-03T08:47:30.912Z,4.27
2022-11-03T08:50:17.440Z,4.87
2022-11-03T08:53:03.925Z,4.53
2022-11-03T08:55:50.431Z,3.53
2022-11-03T08:58:36.649Z,3.37
2022-11-03T09:01:22.902Z,3.60
2022-11-03T09:04:09.326Z,3.20
2022-11-03T09:06:55.855Z,3.30
2022-11-03T09:12:48.774Z,3.27
2022-11-03T09:15:35.308Z,3.63
2022-11-03T09:18:22.677Z,3.53
2022-11-03T09:21:09.023Z,3.00
2022-11-03T09:23:55.889Z,3.93
2022-11-03T09:26:42.316Z,3.07
2022-11-03T09:29:36.393Z,3.50
2022-11-03T09:32:32.361Z,3.40
2022-11-03T09:35:18.758Z,4.50
2022-11-03T09:38:07.672Z,2.73
2022-11-03T09:40:55.223Z,4.23
2022-11-03T09:43:41.637Z,2.93
2022-11-03T09:46:29.734Z,3.87
2022-11-03T09:49:16.931Z,3.10
2022-11-03T09:52:04.503Z,3.03
2022-11-03T09:54:54.207Z,3.50
2022-11-03T09:57:40.834Z,3.80
2022-11-03T10:00:27.455Z,3.37
2022-11-03T10:03:18.516Z,3.33
2022-11-03T10:06:05.091Z,3.40
2022-11-03T10:08:51.702Z,3.43
2022-11-03T10:11:38.503Z,3.37
2022-11-03T10:14:24.677Z,3.20
2022-11-03T10:17:18.017Z,3.50
2022-11-03T10:20:11.208Z,3.27
2022-11-03T10:22:57.711Z,3.00
2022-11-03T10:25:45.348Z,3.27
2022-11-03T10:28:32.014Z,3.17
2022-11-03T10:31:21.198Z,3.60
2022-11-03T10:34:39.738Z,2.93
2022-11-03T10:37:27.357Z,3.17
2022-11-03T10:40:47.681Z,2.53
2022-11-03T10:43:34.818Z,2.83
2022-11-03T10:46:44.626Z,3.30
2022-11-03T10:49:32.466Z,3.20
2022-11-03T10:52:24.931Z,2.93
2022-11-03T10:55:11.504Z,2.90
2022-11-03T10:57:58.509Z,2.80
2022-11-03T11:00:45.379Z,2.90
2022-11-03T11:03:32.629Z,2.93
2022-11-03T11:06:26.560Z,2.97
2022-11-03T11:09:16.683Z,3.50
2022-11-03T11:12:19.040Z,2.77
2022-11-03T11:15:44.299Z,2.90
2022-11-03T11:18:30.716Z,2.80
2022-11-03T11:21:20.004Z,2.30
2022-11-03T11:24:10.384Z,2.87
2022-11-03T11:26:56.893Z,2.83
2022-11-03T11:29:43.479Z,2.70
2022-11-03T11:32:41.739Z,3.20
2022-11-03T11:35:28.201Z,2.70
2022-11-03T11:38:48.585Z,2.93
2022-11-03T11:42:13.854Z,2.93
2022-11-03T11:45:03.035Z,3.07
2022-11-03T11:47:50.499Z,2.47
2022-11-03T11:50:36.959Z,2.63
2022-11-03T11:53:30.717Z,2.60
2022-11-03T11:56:18.922Z,2.43
2022-11-03T11:59:05.055Z,2.73
2022-11-03T12:01:53.575Z,2.50
2022-11-03T12:04:40.075Z,2.73
2022-11-03T12:07:36.655Z,2.50
2022-11-03T12:10:30.113Z,2.60
2022-11-03T12:13:36.998Z,2.13
2022-11-03T12:16:36.618Z,2.60
2022-11-03T12:19:42.612Z,2.97
2022-11-03T12:22:29.352Z,2.57
2022-11-03T12:25:36.568Z,2.50
2022-11-03T12:28:34.168Z,2.43
2022-11-03T12:31:20.909Z,2.53
2022-11-03T12:34:07.446Z,2.53
2022-11-03T12:36:56.320Z,2.40
2022-11-03T12:39:42.685Z,2.57
2022-11-03T12:42:28.913Z,2.67
2022-11-03T12:45:15.336Z,2.57
2022-11-03T12:48:01.644Z,2.23
2022-11-03T12:50:47.997Z,2.20
2022-11-03T12:53:34.376Z,2.30
2022-11-03T12:56:20.699Z,2.10
2022-11-03T12:59:07.860Z,2.57
2022-11-03T13:01:54.621Z,2.47
2022-11-03T13:04:41.194Z,2.37
2022-11-03T13:07:33.481Z,2.30
2022-11-03T13:10:21.323Z,10.40
2022-11-03T13:13:07.869Z,47.43
2022-11-03T13:15:54.927Z,14.97
2022-11-03T13:18:41.425Z,4.83
2022-11-03T13:21:28.142Z,3.13
2022-11-03T13:24:14.329Z,2.53
2022-11-03T13:27:00.558Z,2.43
2022-11-03T13:29:46.820Z,2.20
2022-11-03T13:32:33.311Z,1.90
2022-11-03T13:35:19.964Z,2.30
2022-11-03T13:38:06.253Z,2.40
2022-11-03T13:40:57.755Z,2.30
2022-11-03T13:43:44.477Z,3.87
2022-11-03T13:46:30.866Z,2.80
2022-11-03T13:52:26.800Z,2.80
2022-11-03T14:01:25.903Z,2.90
2022-11-03T14:07:19.210Z,3.10
2022-11-03T14:10:06.053Z,2.73
2022-11-03T14:12:52.620Z,3.00
2022-11-03T14:15:38.935Z,2.83
2022-11-03T14:18:25.329Z,3.07
2022-11-03T14:21:11.646Z,3.50
2022-11-03T14:23:58.102Z,3.57
2022-11-03T14:26:44.364Z,3.37
2022-11-03T14:29:30.794Z,3.47
2022-11-03T14:32:18.155Z,3.70
2022-11-03T14:35:05.157Z,3.23
2022-11-03T14:37:51.724Z,3.27
2022-11-03T14:40:56.520Z,3.40
2022-11-03T14:43:42.719Z,3.37
2022-11-03T14:46:29.564Z,3.27
2022-11-03T14:49:15.990Z,3.77
2022-11-03T14:52:04.429Z,3.23
2022-11-03T14:54:52.081Z,4.43
2022-11-03T14:57:38.500Z,2.87
2022-11-03T15:00:24.802Z,2.97
2022-11-03T15:03:11.284Z,3.23
2022-11-03T15:05:57.559Z,3.00
2022-11-03T15:08:43.991Z,2.93
2022-11-03T15:11:30.715Z,3.30
2022-11-03T15:14:17.018Z,2.77
2022-11-03T15:17:03.242Z,3.03
2022-11-03T15:19:49.619Z,2.90
2022-11-03T15:25:42.026Z,3.43
2022-11-03T15:28:28.516Z,2.57
2022-11-03T15:31:14.819Z,2.80
2022-11-03T15:34:04.426Z,3.30
2022-11-03T15:36:54.195Z,4.67
2022-11-03T15:39:41.557Z,3.70
2022-11-03T15:42:28.312Z,4.00
2022-11-03T15:45:16.377Z,4.10
2022-11-03T15:48:04.453Z,3.73
2022-11-03T15:50:51.620Z,4.07
2022-11-03T15:53:38.748Z,6.23
2022-11-03T15:56:26.096Z,5.10
2022-11-03T16:03:38.837Z,4.90
2022-11-03T16:06:46.721Z,4.67
2022-11-03T16:09:31.608Z,4.03
2022-11-03T16:12:17.896Z,3.50
2022-11-03T16:15:04.690Z,4.00
2022-11-03T16:17:51.099Z,3.57
2022-11-03T16:20:37.640Z,4.03
2022-11-03T16:23:24.680Z,3.30
2022-11-03T16:26:11.127Z,3.47
2022-11-03T16:28:58.385Z,3.40
2022-11-03T16:31:46.834Z,3.80
2022-11-03T16:34:33.113Z,4.27
2022-11-03T16:37:19.463Z,5.20
2022-11-03T16:40:06.460Z,4.57
2022-11-03T16:42:52.612Z,4.17
2022-11-03T16:45:38.943Z,4.97
2022-11-03T16:48:25.168Z,6.53
2022-11-03T16:51:11.200Z,7.73
2022-11-03T16:53:59.584Z,8.60
2022-11-03T16:56:50.569Z,8.00
2022-11-03T16:59:40.016Z,12.83
2022-11-03T17:02:27.887Z,16.00
2022-11-03T17:05:17.390Z,5.50
2022-11-03T17:08:03.871Z,8.67
2022-11-03T17:10:50.443Z,15.67
2022-11-03T17:13:36.737Z,15.10
2022-11-03T17:16:23.225Z,12.73
2022-11-03T17:19:10.019Z,25.63
2022-11-03T17:21:57.113Z,11.13
2022-11-03T17:24:43.849Z,10.57
2022-11-03T17:27:41.692Z,7.60
2022-11-03T17:30:30.807Z,9.90
2022-11-03T17:33:19.547Z,8.87
2022-11-03T17:36:06.348Z,4.67
2022-11-03T17:38:52.884Z,5.10
2022-11-03T17:41:39.090Z,5.47
2022-11-03T17:44:25.310Z,5.13
2022-11-03T17:47:11.767Z,5.70
2022-11-03T17:49:57.992Z,5.77
2022-11-03T17:52:46.633Z,6.03
2022-11-03T17:55:33.222Z,6.83
2022-11-03T17:58:32.411Z,6.20
2022-11-03T18:01:25.049Z,6.30
2022-11-03T18:07:19.228Z,7.20
2022-11-03T18:10:06.811Z,6.20
2022-11-03T18:13:15.555Z,6.33
2022-11-03T18:16:11.893Z,6.93
2022-11-03T18:18:58.707Z,8.90
2022-11-03T18:21:45.447Z,8.27
2022-11-03T18:24:33.175Z,10.13
2022-11-03T18:27:24.963Z,7.60
2022-11-03T18:30:16.640Z,6.53
2022-11-03T18:33:03.230Z,6.10
2022-11-03T18:35:49.737Z,5.93
2022-11-03T18:38:37.170Z,5.97
2022-11-03T18:41:41.925Z,7.00
2022-11-03T18:44:29.969Z,6.17
2022-11-03T18:47:16.824Z,5.63
2022-11-03T18:50:03.888Z,5.33
2022-11-03T18:52:51.924Z,5.53
2022-11-03T18:55:38.438Z,5.87
2022-11-03T18:58:25.743Z,10.23
2022-11-03T19:01:21.965Z,9.70
2022-11-03T19:04:14.852Z,8.77
2022-11-03T19:07:02.838Z,7.93
2022-11-03T19:09:49.382Z,6.93
2022-11-03T19:12:39.211Z,6.13
2022-11-03T19:15:25.995Z,6.47
2022-11-03T19:18:13.089Z,10.73
2022-11-03T19:20:59.530Z,7.33
2022-11-03T19:23:48.176Z,7.50
2022-11-03T19:26:43.704Z,9.50
2022-11-03T19:29:34.377Z,6.80
2022-11-03T19:32:27.696Z,6.87
2022-11-03T19:35:19.119Z,6.40
2022-11-03T19:38:12.155Z,7.80
2022-11-03T19:41:16.910Z,6.20
2022-11-03T19:44:09.241Z,6.93
2022-11-03T19:46:55.773Z,7.03
2022-11-03T19:49:42.342Z,7.90
2022-11-03T19:52:30.338Z,7.10
2022-11-03T19:55:18.811Z,7.17
2022-11-03T19:58:15.686Z,18.70
2022-11-03T20:01:08.226Z,13.67
2022-11-03T20:03:55.017Z,15.83
2022-11-03T20:06:41.525Z,12.83
2022-11-03T20:12:20.041Z,11.13
2022-11-03T20:15:19.019Z,9.70
2022-11-03T20:18:06.470Z,10.27
2022-11-03T20:20:52.888Z,9.13
2022-11-03T20:23:39.332Z,8.23
2022-11-03T20:26:26.769Z,7.17
2022-11-03T20:29:15.048Z,6.43
2022-11-03T20:32:01.131Z,5.83
2022-11-03T20:34:47.721Z,5.47
2022-11-03T20:37:34.058Z,4.87
2022-11-03T20:40:23.716Z,5.47
2022-11-03T20:43:26.908Z,4.90
2022-11-03T20:46:24.583Z,4.47
2022-11-03T20:49:10.956Z,4.93
2022-11-03T20:51:57.202Z,5.20
2022-11-03T20:54:43.469Z,5.50
2022-11-03T20:57:29.516Z,6.00
2022-11-03T21:00:22.186Z,5.90
2022-11-03T21:03:58.388Z,6.10
2022-11-03T21:06:46.862Z,5.10
2022-11-03T21:09:33.042Z,6.13
2022-11-03T21:12:19.497Z,5.53
2022-11-03T21:15:35.550Z,5.33
2022-11-03T21:18:40.380Z,5.57
2022-11-03T21:21:26.659Z,4.23
2022-11-03T21:24:13.250Z,4.40
2022-11-03T21:26:59.611Z,2.50
2022-11-03T21:29:58.930Z,2.13
2022-11-03T21:32:46.150Z,1.93
2022-11-03T21:35:32.347Z,1.90
2022-11-03T21:38:19.181Z,1.50
2022-11-03T21:41:26.308Z,1.80
2022-11-03T21:44:15.287Z,2.93
2022-11-03T21:47:01.805Z,1.70
2022-11-03T21:49:49.268Z,2.37
2022-11-03T21:52:35.756Z,2.07
2022-11-03T21:55:22.249Z,1.77
2022-11-03T21:58:09.031Z,1.73
2022-11-03T22:01:01.032Z,1.33
2022-11-03T22:03:47.349Z,1.33
2022-11-03T22:06:33.639Z,1.47
2022-11-03T22:09:19.921Z,1.50
2022-11-03T22:12:06.670Z,1.10
2022-11-03T22:15:11.917Z,1.10
2022-11-03T22:18:02.681Z,1.20
2022-11-03T22:21:07.574Z,0.97
2022-11-03T22:24:13.784Z,1.40
2022-11-03T22:27:00.513Z,0.70
2022-11-03T22:30:05.458Z,0.80
2022-11-03T22:32:53.795Z,0.80
2022-11-03T22:35:59.085Z,0.63
2022-11-03T22:39:04.089Z,1.20
2022-11-03T22:42:08.972Z,1.30
2022-11-03T22:45:27.485Z,1.00
2022-11-03T22:48:13.854Z,1.27
2022-11-03T22:51:09.122Z,0.80
2022-11-03T22:54:10.487Z,0.90
2022-11-03T22:56:56.922Z,0.90
2022-11-03T22:59:43.311Z,1.10
2022-11-03T23:02:29.677Z,1.10
2022-11-03T23:05:16.063Z,1.00
2022-11-03T23:08:02.633Z,0.90
2022-11-03T23:10:49.200Z,0.63
2022-11-03T23:13:36.386Z,0.80
2022-11-03T23:16:25.516Z,0.63
2022-11-03T23:19:32.433Z,0.73
2022-11-03T23:22:18.656Z,0.70
2022-11-03T23:25:05.671Z,0.70
2022-11-03T23:27:53.001Z,0.70
2022-11-03T23:30:39.487Z,0.70
2022-11-03T23:33:25.961Z,0.93
2022-11-03T23:36:14.590Z,1.00
2022-11-03T23:39:01.942Z,0.83
2022-11-03T23:41:50.336Z,0.83
2022-11-03T23:45:08.898Z,0.70
2022-11-03T23:48:13.787Z,0.80
2022-11-03T23:50:59.832Z,1.07
2022-11-03T23:53:47.272Z,0.83
2022-11-03T23:56:58.129Z,0.70
